sensor_id;sensor_type;location;lat;lon;timestamp;pressure;altitude;pressure_sealevel;temperature;humidity
72612;BME280;60655;52.182;4.474;2023-04-24T00:00:29;99863.38;;;10.46;96.07
72612;BME280;60655;52.182;4.474;2023-04-24T00:02:32;99818.72;;;10.15;96.11
72612;BME280;60655;52.182;4.474;2023-04-24T00:04:33;99850.78;;;10.25;96.86
72612;BME280;60655;52.182;4.474;2023-04-24T00:06:34;99864.06;;;10.25;97.35
72612;BME280;60655;52.182;4.474;2023-04-24T00:08:35;99857.69;;;10.38;97.07
72612;BME280;60655;52.182;4.474;2023-04-24T00:10:36;99858.22;;;10.40;96.92
72612;BME280;60655;52.182;4.474;2023-04-24T00:12:38;99878.47;;;10.18;97.37
72612;BME280;60655;52.182;4.474;2023-04-24T00:14:39;99875.66;;;10.07;97.76
72612;BME280;60655;52.182;4.474;2023-04-24T00:16:40;99861.72;;;10.00;98.14
72612;BME280;60655;52.182;4.474;2023-04-24T00:18:41;99874.13;;;10.11;99.28
72612;BME280;60655;52.182;4.474;2023-04-24T00:20:43;99876.53;;;10.25;98.16
72612;BME280;60655;52.182;4.474;2023-04-24T00:22:44;99842.03;;;9.85;98.89
72612;BME280;60655;52.182;4.474;2023-04-24T00:24:45;99883.50;;;10.02;99.27
72612;BME280;60655;52.182;4.474;2023-04-24T00:26:46;99876.88;;;10.16;99.31
72612;BME280;60655;52.182;4.474;2023-04-24T00:28:48;99825.47;;;10.06;98.21
72612;BME280;60655;52.182;4.474;2023-04-24T00:30:49;99887.50;;;10.28;98.29
72612;BME280;60655;52.182;4.474;2023-04-24T00:32:50;99883.78;;;10.29;98.11
72612;BME280;60655;52.182;4.474;2023-04-24T00:34:51;99885.94;;;10.04;98.45
72612;BME280;60655;52.182;4.474;2023-04-24T00:36:53;99883.78;;;10.18;98.10
72612;BME280;60655;52.182;4.474;2023-04-24T00:38:54;99885.00;;;10.10;97.70
72612;BME280;60655;52.182;4.474;2023-04-24T00:40:55;99881.09;;;10.01;98.59
72612;BME280;60655;52.182;4.474;2023-04-24T00:42:56;99837.34;;;9.63;99.17
72612;BME280;60655;52.182;4.474;2023-04-24T00:44:58;99877.06;;;9.98;99.38
72612;BME280;60655;52.182;4.474;2023-04-24T00:47:00;99860.91;;;10.00;98.58
72612;BME280;60655;52.182;4.474;2023-04-24T00:49:02;99845.53;;;9.73;98.84
72612;BME280;60655;52.182;4.474;2023-04-24T00:51:03;99857.81;;;9.91;98.28
72612;BME280;60655;52.182;4.474;2023-04-24T00:53:04;99884.31;;;10.03;98.16
72612;BME280;60655;52.182;4.474;2023-04-24T00:55:05;99886.19;;;9.91;98.84
72612;BME280;60655;52.182;4.474;2023-04-24T00:57:07;99888.50;;;9.87;99.51
72612;BME280;60655;52.182;4.474;2023-04-24T00:59:09;99891.19;;;10.15;99.60
72612;BME280;60655;52.182;4.474;2023-04-24T01:01:10;99891.63;;;10.36;98.37
72612;BME280;60655;52.182;4.474;2023-04-24T01:03:12;99889.53;;;10.38;97.21
72612;BME280;60655;52.182;4.474;2023-04-24T01:05:15;99881.56;;;10.38;97.10
72612;BME280;60655;52.182;4.474;2023-04-24T01:07:20;99870.06;;;10.49;97.23
72612;BME280;60655;52.182;4.474;2023-04-24T01:09:23;99884.34;;;10.60;96.87
72612;BME280;60655;52.182;4.474;2023-04-24T01:11:24;99885.16;;;10.60;95.62
72612;BME280;60655;52.182;4.474;2023-04-24T01:13:25;99892.25;;;10.43;95.79
72612;BME280;60655;52.182;4.474;2023-04-24T01:15:27;99883.09;;;10.34;96.92
72612;BME280;60655;52.182;4.474;2023-04-24T01:17:28;99880.84;;;10.42;96.27
72612;BME280;60655;52.182;4.474;2023-04-24T01:19:29;99873.31;;;10.23;96.76
72612;BME280;60655;52.182;4.474;2023-04-24T01:21:30;99887.81;;;10.60;96.30
72612;BME280;60655;52.182;4.474;2023-04-24T01:23:32;99893.91;;;10.61;95.91
72612;BME280;60655;52.182;4.474;2023-04-24T01:25:33;99874.09;;;10.68;95.71
72612;BME280;60655;52.182;4.474;2023-04-24T01:27:34;99886.28;;;10.64;95.51
72612;BME280;60655;52.182;4.474;2023-04-24T01:29:36;99883.28;;;10.61;94.45
72612;BME280;60655;52.182;4.474;2023-04-24T01:31:37;99887.91;;;10.65;95.23
72612;BME280;60655;52.182;4.474;2023-04-24T01:33:39;99887.09;;;10.65;95.44
72612;BME280;60655;52.182;4.474;2023-04-24T01:35:42;99890.81;;;10.35;95.72
72612;BME280;60655;52.182;4.474;2023-04-24T01:37:43;99891.03;;;10.34;96.53
72612;BME280;60655;52.182;4.474;2023-04-24T01:39:44;99881.56;;;10.38;96.08
72612;BME280;60655;52.182;4.474;2023-04-24T01:41:45;99873.84;;;10.53;95.65
72612;BME280;60655;52.182;4.474;2023-04-24T01:43:46;99876.19;;;10.49;95.40
72612;BME280;60655;52.182;4.474;2023-04-24T01:45:48;99872.00;;;10.54;95.05
72612;BME280;60655;52.182;4.474;2023-04-24T01:47:50;99839.47;;;10.30;94.71
72612;BME280;60655;52.182;4.474;2023-04-24T01:49:51;99881.59;;;10.55;95.09
72612;BME280;60655;52.182;4.474;2023-04-24T01:51:53;99875.47;;;10.54;96.03
72612;BME280;60655;52.182;4.474;2023-04-24T01:53:54;99859.53;;;10.54;95.17
72612;BME280;60655;52.182;4.474;2023-04-24T01:55:54;99878.22;;;10.76;95.27
72612;BME280;60655;52.182;4.474;2023-04-24T01:57:56;99879.97;;;10.54;95.12
72612;BME280;60655;52.182;4.474;2023-04-24T01:59:57;99881.13;;;10.58;95.21
72612;BME280;60655;52.182;4.474;2023-04-24T02:01:58;99879.19;;;10.70;95.18
72612;BME280;60655;52.182;4.474;2023-04-24T02:03:59;99876.28;;;10.71;95.35
72612;BME280;60655;52.182;4.474;2023-04-24T02:06:00;99878.06;;;10.82;95.15
72612;BME280;60655;52.182;4.474;2023-04-24T02:08:01;99871.41;;;10.97;94.46
72612;BME280;60655;52.182;4.474;2023-04-24T02:10:03;99869.88;;;10.84;93.93
72612;BME280;60655;52.182;4.474;2023-04-24T02:12:04;99863.84;;;10.89;94.16
72612;BME280;60655;52.182;4.474;2023-04-24T02:14:05;99866.16;;;10.85;93.77
72612;BME280;60655;52.182;4.474;2023-04-24T02:16:06;99820.28;;;10.56;92.80
72612;BME280;60655;52.182;4.474;2023-04-24T02:18:07;99868.44;;;10.93;93.60
72612;BME280;60655;52.182;4.474;2023-04-24T02:20:09;99866.50;;;10.89;93.36
72612;BME280;60655;52.182;4.474;2023-04-24T02:22:10;99859.72;;;10.81;93.97
72612;BME280;60655;52.182;4.474;2023-04-24T02:24:13;99855.22;;;10.81;93.85
72612;BME280;60655;52.182;4.474;2023-04-24T02:26:14;99853.69;;;10.86;93.48
72612;BME280;60655;52.182;4.474;2023-04-24T02:28:16;99807.88;;;10.62;93.92
72612;BME280;60655;52.182;4.474;2023-04-24T02:30:17;99858.19;;;10.85;94.00
72612;BME280;60655;52.182;4.474;2023-04-24T02:32:18;99849.41;;;11.01;93.56
72612;BME280;60655;52.182;4.474;2023-04-24T02:34:19;99827.00;;;10.97;93.34
72612;BME280;60655;52.182;4.474;2023-04-24T02:36:20;99843.59;;;11.04;93.41
72612;BME280;60655;52.182;4.474;2023-04-24T02:38:21;99850.53;;;11.05;92.91
72612;BME280;60655;52.182;4.474;2023-04-24T02:40:22;99842.66;;;10.94;93.17
72612;BME280;60655;52.182;4.474;2023-04-24T02:42:23;99848.03;;;10.99;93.62
72612;BME280;60655;52.182;4.474;2023-04-24T02:44:24;99848.91;;;11.04;93.20
72612;BME280;60655;52.182;4.474;2023-04-24T02:46:26;99846.03;;;11.06;93.14
72612;BME280;60655;52.182;4.474;2023-04-24T02:48:27;99857.13;;;11.03;93.01
72612;BME280;60655;52.182;4.474;2023-04-24T02:50:28;99864.06;;;11.04;93.51
72612;BME280;60655;52.182;4.474;2023-04-24T02:52:31;99853.28;;;10.94;93.24
72612;BME280;60655;52.182;4.474;2023-04-24T02:54:32;99865.84;;;10.81;93.19
72612;BME280;60655;52.182;4.474;2023-04-24T02:56:33;99864.72;;;10.77;93.63
72612;BME280;60655;52.182;4.474;2023-04-24T02:58:34;99885.25;;;10.82;93.75
72612;BME280;60655;52.182;4.474;2023-04-24T03:00:36;99843.78;;;10.64;93.43
72612;BME280;60655;52.182;4.474;2023-04-24T03:02:37;99869.72;;;10.91;93.54
72612;BME280;60655;52.182;4.474;2023-04-24T03:04:38;99887.66;;;11.00;93.50
72612;BME280;60655;52.182;4.474;2023-04-24T03:06:40;99887.09;;;10.81;93.03
72612;BME280;60655;52.182;4.474;2023-04-24T03:08:41;99864.75;;;10.49;93.71
72612;BME280;60655;52.182;4.474;2023-04-24T03:10:42;99890.47;;;10.60;94.65
72612;BME280;60655;52.182;4.474;2023-04-24T03:12:43;99886.75;;;10.78;94.72
72612;BME280;60655;52.182;4.474;2023-04-24T03:14:44;99887.09;;;10.81;94.53
72612;BME280;60655;52.182;4.474;2023-04-24T03:16:45;99895.06;;;10.81;94.68
72612;BME280;60655;52.182;4.474;2023-04-24T03:18:46;99895.53;;;10.78;94.82
72612;BME280;60655;52.182;4.474;2023-04-24T03:20:47;99893.22;;;10.82;94.84
72612;BME280;60655;52.182;4.474;2023-04-24T03:22:48;99888.78;;;10.88;94.79
72612;BME280;60655;52.182;4.474;2023-04-24T03:24:49;99887.41;;;10.85;93.74
72612;BME280;60655;52.182;4.474;2023-04-24T03:26:50;99886.03;;;10.82;94.22
72612;BME280;60655;52.182;4.474;2023-04-24T03:28:51;99896.69;;;10.82;94.01
72612;BME280;60655;52.182;4.474;2023-04-24T03:30:52;99892.06;;;10.78;94.54
72612;BME280;60655;52.182;4.474;2023-04-24T03:32:53;99845.38;;;10.48;94.10
72612;BME280;60655;52.182;4.474;2023-04-24T03:34:54;99890.78;;;10.64;93.12
72612;BME280;60655;52.182;4.474;2023-04-24T03:36:56;99890.56;;;10.37;92.12
72612;BME280;60655;52.182;4.474;2023-04-24T03:38:57;99891.63;;;10.36;94.09
72612;BME280;60655;52.182;4.474;2023-04-24T03:40:58;99905.72;;;10.53;92.76
72612;BME280;60655;52.182;4.474;2023-04-24T03:42:59;99904.59;;;10.49;93.26
72612;BME280;60655;52.182;4.474;2023-04-24T03:45:00;99893.47;;;10.35;92.79
72612;BME280;60655;52.182;4.474;2023-04-24T03:47:01;99897.19;;;10.23;92.12
72612;BME280;60655;52.182;4.474;2023-04-24T03:49:02;99903.69;;;10.43;92.82
72612;BME280;60655;52.182;4.474;2023-04-24T03:51:03;99882.75;;;10.19;92.59
72612;BME280;60655;52.182;4.474;2023-04-24T03:53:04;99889.78;;;10.36;92.93
72612;BME280;60655;52.182;4.474;2023-04-24T03:55:06;99905.94;;;10.35;92.03
72612;BME280;60655;52.182;4.474;2023-04-24T03:57:07;99910.59;;;10.44;92.70
72612;BME280;60655;52.182;4.474;2023-04-24T03:59:08;99913.09;;;10.34;91.71
72612;BME280;60655;52.182;4.474;2023-04-24T04:01:09;99893.38;;;10.30;92.51
72612;BME280;60655;52.182;4.474;2023-04-24T04:03:11;99906.81;;;10.40;93.19
72612;BME280;60655;52.182;4.474;2023-04-24T04:05:12;99907.16;;;10.44;92.64
72612;BME280;60655;52.182;4.474;2023-04-24T04:07:13;99898.44;;;10.32;92.43
72612;BME280;60655;52.182;4.474;2023-04-24T04:09:14;99912.28;;;10.34;93.45
72612;BME280;60655;52.182;4.474;2023-04-24T04:11:15;99912.66;;;10.26;93.08
72612;BME280;60655;52.182;4.474;2023-04-24T04:13:16;99916.91;;;10.27;93.35
72612;BME280;60655;52.182;4.474;2023-04-24T04:15:17;99922.00;;;10.16;92.33
72612;BME280;60655;52.182;4.474;2023-04-24T04:17:18;99924.28;;;9.73;94.42
72612;BME280;60655;52.182;4.474;2023-04-24T04:19:19;99935.69;;;9.73;96.34
72612;BME280;60655;52.182;4.474;2023-04-24T04:21:19;99939.50;;;9.77;96.82
72612;BME280;60655;52.182;4.474;2023-04-24T04:23:20;99936.47;;;9.86;97.87
72612;BME280;60655;52.182;4.474;2023-04-24T04:25:21;99951.50;;;9.80;96.93
72612;BME280;60655;52.182;4.474;2023-04-24T04:27:23;99951.16;;;9.65;98.30
72612;BME280;60655;52.182;4.474;2023-04-24T04:29:25;99954.38;;;9.55;98.60
72612;BME280;60655;52.182;4.474;2023-04-24T04:31:26;99961.06;;;9.58;98.54
72612;BME280;60655;52.182;4.474;2023-04-24T04:33:27;99966.38;;;9.46;99.22
72612;BME280;60655;52.182;4.474;2023-04-24T04:35:29;99947.09;;;9.27;100.00
72612;BME280;60655;52.182;4.474;2023-04-24T04:37:31;99985.22;;;9.26;100.00
72612;BME280;60655;52.182;4.474;2023-04-24T04:39:32;99977.19;;;9.33;100.00
72612;BME280;60655;52.182;4.474;2023-04-24T04:41:33;99981.44;;;9.22;100.00
72612;BME280;60655;52.182;4.474;2023-04-24T04:43:35;99964.59;;;9.05;100.00
72612;BME280;60655;52.182;4.474;2023-04-24T04:45:37;99991.25;;;9.22;100.00
72612;BME280;60655;52.182;4.474;2023-04-24T04:47:39;99993.78;;;9.28;99.83
72612;BME280;60655;52.182;4.474;2023-04-24T04:49:40;100002.06;;;9.20;99.82
72612;BME280;60655;52.182;4.474;2023-04-24T04:51:42;99995.75;;;9.21;100.00
72612;BME280;60655;52.182;4.474;2023-04-24T04:53:43;100011.88;;;9.31;99.54
72612;BME280;60655;52.182;4.474;2023-04-24T04:55:43;100032.13;;;9.26;98.93
72612;BME280;60655;52.182;4.474;2023-04-24T04:57:45;100042.03;;;9.19;99.48
72612;BME280;60655;52.182;4.474;2023-04-24T04:59:48;100040.00;;;9.02;99.96
72612;BME280;60655;52.182;4.474;2023-04-24T05:01:49;100053.59;;;8.94;99.53
72612;BME280;60655;52.182;4.474;2023-04-24T05:03:50;100058.19;;;8.99;98.79
72612;BME280;60655;52.182;4.474;2023-04-24T05:05:51;100015.81;;;8.69;99.39
72612;BME280;60655;52.182;4.474;2023-04-24T05:07:52;100061.53;;;8.94;99.39
72612;BME280;60655;52.182;4.474;2023-04-24T05:09:53;100071.44;;;8.99;98.69
72612;BME280;60655;52.182;4.474;2023-04-24T05:11:54;100051.16;;;8.93;98.38
72612;BME280;60655;52.182;4.474;2023-04-24T05:13:55;100087.78;;;8.96;97.77
72612;BME280;60655;52.182;4.474;2023-04-24T05:15:55;100059.13;;;8.74;97.93
72612;BME280;60655;52.182;4.474;2023-04-24T05:17:57;100095.41;;;8.92;98.51
72612;BME280;60655;52.182;4.474;2023-04-24T05:19:58;100087.34;;;8.99;98.15
72612;BME280;60655;52.182;4.474;2023-04-24T05:21:59;100087.09;;;8.89;98.34
72612;BME280;60655;52.182;4.474;2023-04-24T05:24:03;100110.91;;;8.89;97.51
72612;BME280;60655;52.182;4.474;2023-04-24T05:26:05;100120.63;;;8.95;97.44
72612;BME280;60655;52.182;4.474;2023-04-24T05:28:06;100082.31;;;8.61;97.61
72612;BME280;60655;52.182;4.474;2023-04-24T05:30:08;100127.69;;;8.83;97.11
72612;BME280;60655;52.182;4.474;2023-04-24T05:32:10;100125.47;;;8.79;96.32
72612;BME280;60655;52.182;4.474;2023-04-24T05:34:11;100132.69;;;8.91;95.21
72612;BME280;60655;52.182;4.474;2023-04-24T05:36:11;100136.59;;;8.88;94.95
72612;BME280;60655;52.182;4.474;2023-04-24T05:38:13;100160.06;;;8.85;96.11
72612;BME280;60655;52.182;4.474;2023-04-24T05:40:14;100140.25;;;8.69;95.67
72612;BME280;60655;52.182;4.474;2023-04-24T05:42:15;100148.06;;;8.64;95.96
72612;BME280;60655;52.182;4.474;2023-04-24T05:44:16;100162.66;;;8.91;96.42
72612;BME280;60655;52.182;4.474;2023-04-24T05:46:17;100172.88;;;8.88;96.44
72612;BME280;60655;52.182;4.474;2023-04-24T05:48:18;100170.59;;;8.91;95.81
72612;BME280;60655;52.182;4.474;2023-04-24T05:50:19;100160.03;;;8.66;95.99
72612;BME280;60655;52.182;4.474;2023-04-24T05:52:20;100174.94;;;8.86;96.24
72612;BME280;60655;52.182;4.474;2023-04-24T05:54:21;100180.13;;;8.74;96.66
72612;BME280;60655;52.182;4.474;2023-04-24T05:56:22;100185.81;;;8.77;97.17
72612;BME280;60655;52.182;4.474;2023-04-24T05:58:24;100188.72;;;8.69;96.53
72612;BME280;60655;52.182;4.474;2023-04-24T06:00:25;100203.38;;;8.72;96.56
72612;BME280;60655;52.182;4.474;2023-04-24T06:02:26;100203.09;;;8.80;96.45
72612;BME280;60655;52.182;4.474;2023-04-24T06:04:28;100200.16;;;8.88;95.58
72612;BME280;60655;52.182;4.474;2023-04-24T06:06:29;100228.66;;;8.93;96.12
72612;BME280;60655;52.182;4.474;2023-04-24T06:08:30;100226.13;;;8.79;95.49
72612;BME280;60655;52.182;4.474;2023-04-24T06:10:31;100236.72;;;8.79;95.80
72612;BME280;60655;52.182;4.474;2023-04-24T06:12:32;100207.94;;;8.65;95.49
72612;BME280;60655;52.182;4.474;2023-04-24T06:14:33;100239.72;;;8.83;95.76
72612;BME280;60655;52.182;4.474;2023-04-24T06:16:34;100195.63;;;8.52;94.89
72612;BME280;60655;52.182;4.474;2023-04-24T06:18:35;100242.66;;;8.75;95.32
72612;BME280;60655;52.182;4.474;2023-04-24T06:20:38;100261.78;;;8.77;95.94
72612;BME280;60655;52.182;4.474;2023-04-24T06:22:40;100258.16;;;8.71;93.13
72612;BME280;60655;52.182;4.474;2023-04-24T06:24:41;100255.16;;;8.68;92.98
72612;BME280;60655;52.182;4.474;2023-04-24T06:26:42;100249.00;;;8.49;92.84
72612;BME280;60655;52.182;4.474;2023-04-24T06:28:44;100255.81;;;8.63;93.11
72612;BME280;60655;52.182;4.474;2023-04-24T06:30:45;100275.50;;;8.67;93.54
72612;BME280;60655;52.182;4.474;2023-04-24T06:32:46;100269.13;;;8.75;92.98
72612;BME280;60655;52.182;4.474;2023-04-24T06:34:46;100265.78;;;8.86;93.25
72612;BME280;60655;52.182;4.474;2023-04-24T06:36:47;100240.53;;;8.65;92.79
72612;BME280;60655;52.182;4.474;2023-04-24T06:38:48;100268.66;;;8.85;93.11
72612;BME280;60655;52.182;4.474;2023-04-24T06:40:49;100293.69;;;8.89;93.16
72612;BME280;60655;52.182;4.474;2023-04-24T06:42:50;100310.47;;;8.76;93.16
72612;BME280;60655;52.182;4.474;2023-04-24T06:44:51;100283.69;;;8.66;92.54
72612;BME280;60655;52.182;4.474;2023-04-24T06:46:52;100298.38;;;8.87;92.21
72612;BME280;60655;52.182;4.474;2023-04-24T06:48:54;100296.00;;;8.78;92.34
72612;BME280;60655;52.182;4.474;2023-04-24T06:50:58;100313.50;;;8.79;93.63
72612;BME280;60655;52.182;4.474;2023-04-24T06:52:59;100321.34;;;8.68;95.28
72612;BME280;60655;52.182;4.474;2023-04-24T06:55:03;100317.75;;;8.62;95.83
72612;BME280;60655;52.182;4.474;2023-04-24T06:57:05;100331.13;;;8.67;96.21
72612;BME280;60655;52.182;4.474;2023-04-24T06:59:06;100335.69;;;8.60;94.88
72612;BME280;60655;52.182;4.474;2023-04-24T07:01:06;100319.25;;;8.52;95.30
72612;BME280;60655;52.182;4.474;2023-04-24T07:03:07;100329.28;;;8.43;96.19
72612;BME280;60655;52.182;4.474;2023-04-24T07:05:10;100342.22;;;8.58;95.59
72612;BME280;60655;52.182;4.474;2023-04-24T07:07:12;100290.66;;;8.35;94.37
72612;BME280;60655;52.182;4.474;2023-04-24T07:09:15;100346.69;;;8.57;93.46
72612;BME280;60655;52.182;4.474;2023-04-24T07:11:19;100354.44;;;8.59;91.45
72612;BME280;60655;52.182;4.474;2023-04-24T07:13:20;100345.72;;;8.76;91.23
72612;BME280;60655;52.182;4.474;2023-04-24T07:15:22;100328.63;;;8.48;89.27
72612;BME280;60655;52.182;4.474;2023-04-24T07:17:33;100353.44;;;8.53;88.20
72612;BME280;60655;52.182;4.474;2023-04-24T07:19:35;100366.56;;;8.66;87.65
72612;BME280;60655;52.182;4.474;2023-04-24T07:21:36;100338.41;;;8.47;88.77
72612;BME280;60655;52.182;4.474;2023-04-24T07:23:37;100339.44;;;8.46;88.71
72612;BME280;60655;52.182;4.474;2023-04-24T07:25:38;100383.06;;;8.68;86.18
72612;BME280;60655;52.182;4.474;2023-04-24T07:27:40;100390.16;;;8.74;86.36
72612;BME280;60655;52.182;4.474;2023-04-24T07:29:41;100370.09;;;8.60;85.41
72612;BME280;60655;52.182;4.474;2023-04-24T07:31:42;100396.47;;;8.73;86.85
72612;BME280;60655;52.182;4.474;2023-04-24T07:33:43;100404.69;;;8.65;87.32
72612;BME280;60655;52.182;4.474;2023-04-24T07:35:43;100399.81;;;8.62;87.78
72612;BME280;60655;52.182;4.474;2023-04-24T07:37:46;100400.88;;;8.86;88.89
72612;BME280;60655;52.182;4.474;2023-04-24T07:39:47;100376.88;;;8.50;84.91
72612;BME280;60655;52.182;4.474;2023-04-24T07:41:48;100404.13;;;8.57;84.80
72612;BME280;60655;52.182;4.474;2023-04-24T07:43:49;100423.13;;;8.78;86.27
72612;BME280;60655;52.182;4.474;2023-04-24T07:45:51;100400.25;;;8.59;86.72
72612;BME280;60655;52.182;4.474;2023-04-24T07:47:52;100405.31;;;8.61;87.22
72612;BME280;60655;52.182;4.474;2023-04-24T07:49:53;100387.44;;;8.56;86.36
72612;BME280;60655;52.182;4.474;2023-04-24T07:52:13;100422.09;;;8.79;85.94
72612;BME280;60655;52.182;4.474;2023-04-24T07:54:14;100431.25;;;8.84;85.68
72612;BME280;60655;52.182;4.474;2023-04-24T07:56:15;100431.72;;;8.74;86.65
72612;BME280;60655;52.182;4.474;2023-04-24T07:58:17;100426.75;;;8.84;86.64
72612;BME280;60655;52.182;4.474;2023-04-24T08:00:19;100440.63;;;9.11;88.02
72612;BME280;60655;52.182;4.474;2023-04-24T08:02:20;100414.56;;;8.76;83.59
72612;BME280;60655;52.182;4.474;2023-04-24T08:04:26;100442.00;;;8.89;81.58
72612;BME280;60655;52.182;4.474;2023-04-24T08:06:28;100447.69;;;8.92;80.69
72612;BME280;60655;52.182;4.474;2023-04-24T08:08:30;100453.13;;;8.97;80.82
72612;BME280;60655;52.182;4.474;2023-04-24T08:10:31;100408.25;;;8.77;80.29
72612;BME280;60655;52.182;4.474;2023-04-24T08:12:32;100462.28;;;9.01;81.76
72612;BME280;60655;52.182;4.474;2023-04-24T08:14:33;100403.44;;;8.68;81.60
72612;BME280;60655;52.182;4.474;2023-04-24T08:16:35;100461.75;;;8.93;81.05
72612;BME280;60655;52.182;4.474;2023-04-24T08:18:36;100465.53;;;9.03;79.81
72612;BME280;60655;52.182;4.474;2023-04-24T08:20:36;100465.44;;;9.17;80.46
72612;BME280;60655;52.182;4.474;2023-04-24T08:22:37;100474.59;;;9.21;82.22
72612;BME280;60655;52.182;4.474;2023-04-24T08:24:38;100477.38;;;9.26;81.39
72612;BME280;60655;52.182;4.474;2023-04-24T08:26:39;100483.97;;;9.23;79.78
72612;BME280;60655;52.182;4.474;2023-04-24T08:28:40;100487.50;;;9.35;79.39
72612;BME280;60655;52.182;4.474;2023-04-24T08:30:41;100472.50;;;8.98;76.56
72612;BME280;60655;52.182;4.474;2023-04-24T08:32:42;100485.28;;;9.07;75.48
72612;BME280;60655;52.182;4.474;2023-04-24T08:34:43;100507.22;;;9.21;75.79
72612;BME280;60655;52.182;4.474;2023-04-24T08:36:44;100508.91;;;9.09;75.21
72612;BME280;60655;52.182;4.474;2023-04-24T08:38:45;100512.59;;;9.08;77.50
72612;BME280;60655;52.182;4.474;2023-04-24T08:40:50;100512.81;;;9.31;79.19
72612;BME280;60655;52.182;4.474;2023-04-24T08:42:54;100495.25;;;9.12;77.87
72612;BME280;60655;52.182;4.474;2023-04-24T08:44:59;100521.56;;;9.07;77.21
72612;BME280;60655;52.182;4.474;2023-04-24T08:47:01;100512.34;;;9.16;79.16
72612;BME280;60655;52.182;4.474;2023-04-24T08:49:03;100519.34;;;9.04;77.73
72612;BME280;60655;52.182;4.474;2023-04-24T08:51:09;100487.31;;;8.74;78.00
72612;BME280;60655;52.182;4.474;2023-04-24T08:53:10;100506.41;;;8.89;78.05
72612;BME280;60655;52.182;4.474;2023-04-24T08:55:11;100528.50;;;9.08;77.98
72612;BME280;60655;52.182;4.474;2023-04-24T08:57:14;100514.88;;;9.29;77.83
72612;BME280;60655;52.182;4.474;2023-04-24T08:59:16;100538.94;;;9.28;78.27
72612;BME280;60655;52.182;4.474;2023-04-24T09:01:19;100539.66;;;9.17;79.31
72612;BME280;60655;52.182;4.474;2023-04-24T09:03:21;100541.16;;;8.99;78.11
72612;BME280;60655;52.182;4.474;2023-04-24T09:05:22;100543.09;;;8.86;81.46
72612;BME280;60655;52.182;4.474;2023-04-24T09:07:24;100541.97;;;9.00;80.97
72612;BME280;60655;52.182;4.474;2023-04-24T09:09:30;100551.16;;;8.97;81.05
72612;BME280;60655;52.182;4.474;2023-04-24T09:11:32;100527.59;;;8.89;82.44
72612;BME280;60655;52.182;4.474;2023-04-24T09:13:36;100537.81;;;8.79;79.55
72612;BME280;60655;52.182;4.474;2023-04-24T09:15:41;100513.97;;;8.79;80.64
72612;BME280;60655;52.182;4.474;2023-04-24T09:17:43;100537.16;;;8.90;77.59
72612;BME280;60655;52.182;4.474;2023-04-24T09:19:44;100546.47;;;8.99;76.88
72612;BME280;60655;52.182;4.474;2023-04-24T09:21:46;100550.50;;;9.08;77.28
72612;BME280;60655;52.182;4.474;2023-04-24T09:23:57;100534.84;;;9.00;76.06
72612;BME280;60655;52.182;4.474;2023-04-24T09:25:59;100547.84;;;9.08;75.30
72612;BME280;60655;52.182;4.474;2023-04-24T09:28:22;100554.00;;;9.34;75.19
72612;BME280;60655;52.182;4.474;2023-04-24T09:30:25;100548.59;;;9.22;74.93
72612;BME280;60655;52.182;4.474;2023-04-24T09:32:27;100536.72;;;9.25;74.13
72612;BME280;60655;52.182;4.474;2023-04-24T09:34:29;100566.25;;;9.28;72.67
72612;BME280;60655;52.182;4.474;2023-04-24T09:36:34;100571.66;;;9.46;74.29
72612;BME280;60655;52.182;4.474;2023-04-24T09:38:38;100581.53;;;9.33;75.96
72612;BME280;60655;52.182;4.474;2023-04-24T09:40:39;100592.56;;;9.30;79.41
72612;BME280;60655;52.182;4.474;2023-04-24T09:42:44;100593.69;;;9.16;81.18
72612;BME280;60655;52.182;4.474;2023-04-24T09:44:49;100552.09;;;8.78;82.58
72612;BME280;60655;52.182;4.474;2023-04-24T09:46:57;100580.78;;;8.88;82.75
72612;BME280;60655;52.182;4.474;2023-04-24T09:49:07;100574.03;;;8.92;83.72
72612;BME280;60655;52.182;4.474;2023-04-24T09:51:10;100543.28;;;8.91;83.27
72612;BME280;60655;52.182;4.474;2023-04-24T09:53:12;100599.41;;;9.44;83.21
72612;BME280;60655;52.182;4.474;2023-04-24T09:55:18;100580.66;;;9.45;83.33
72612;BME280;60655;52.182;4.474;2023-04-24T09:57:20;100592.25;;;9.51;82.03
72612;BME280;60655;52.182;4.474;2023-04-24T09:59:21;100601.03;;;9.45;80.78
72612;BME280;60655;52.182;4.474;2023-04-24T10:01:32;100572.66;;;9.52;80.45
72612;BME280;60655;52.182;4.474;2023-04-24T10:03:34;100566.63;;;9.38;76.88
72612;BME280;60655;52.182;4.474;2023-04-24T10:05:37;100597.38;;;9.71;78.17
72612;BME280;60655;52.182;4.474;2023-04-24T10:07:43;100608.97;;;9.76;75.72
72612;BME280;60655;52.182;4.474;2023-04-24T10:09:44;100613.94;;;9.91;75.75
72612;BME280;60655;52.182;4.474;2023-04-24T10:11:48;100591.09;;;9.90;74.34
72612;BME280;60655;52.182;4.474;2023-04-24T10:13:49;100604.53;;;9.95;76.11
72612;BME280;60655;52.182;4.474;2023-04-24T10:15:50;100620.78;;;9.80;73.90
72612;BME280;60655;52.182;4.474;2023-04-24T10:17:53;100578.56;;;9.79;73.14
72612;BME280;60655;52.182;4.474;2023-04-24T10:19:54;100607.81;;;9.91;74.19
72612;BME280;60655;52.182;4.474;2023-04-24T10:21:56;100634.34;;;10.15;74.29
72612;BME280;60655;52.182;4.474;2023-04-24T10:23:58;100620.03;;;10.16;74.47
72612;BME280;60655;52.182;4.474;2023-04-24T10:26:00;100598.13;;;10.03;76.01
72612;BME280;60655;52.182;4.474;2023-04-24T10:28:03;100624.78;;;10.39;74.95
72612;BME280;60655;52.182;4.474;2023-04-24T10:30:05;100628.31;;;10.70;74.06
72612;BME280;60655;52.182;4.474;2023-04-24T10:32:07;100639.59;;;10.47;74.30
72612;BME280;60655;52.182;4.474;2023-04-24T10:34:10;100633.63;;;10.52;73.48
72612;BME280;60655;52.182;4.474;2023-04-24T10:36:13;100621.91;;;9.91;75.03
72612;BME280;60655;52.182;4.474;2023-04-24T10:38:21;100601.50;;;9.67;77.94
72612;BME280;60655;52.182;4.474;2023-04-24T10:40:31;100635.44;;;9.83;79.44
72612;BME280;60655;52.182;4.474;2023-04-24T10:42:33;100639.88;;;9.64;79.71
72612;BME280;60655;52.182;4.474;2023-04-24T10:44:37;100642.50;;;9.64;80.28